sensor_id;sensor_type;location;lat;lon;timestamp;temperature;humidity
10304;DHT22;5197;48.152;8.590;2023-05-07T00:00:02;12.20;17.00
10304;DHT22;5197;48.152;8.590;2023-05-07T00:02:30;12.20;17.10
10304;DHT22;5197;48.152;8.590;2023-05-07T00:04:57;10.50;15.80
10304;DHT22;5197;48.152;8.590;2023-05-07T00:07:24;12.20;17.10
10304;DHT22;5197;48.152;8.590;2023-05-07T00:09:51;12.20;17.20
10304;DHT22;5197;48.152;8.590;2023-05-07T00:12:18;12.10;17.40
10304;DHT22;5197;48.152;8.590;2023-05-07T00:14:45;12.10;17.60
10304;DHT22;5197;48.152;8.590;2023-05-07T00:17:12;12.10;17.90
10304;DHT22;5197;48.152;8.590;2023-05-07T00:19:39;12.10;18.00
10304;DHT22;5197;48.152;8.590;2023-05-07T00:22:07;12.10;18.20
10304;DHT22;5197;48.152;8.590;2023-05-07T00:24:34;12.10;18.20
10304;DHT22;5197;48.152;8.590;2023-05-07T00:27:02;12.10;18.20
10304;DHT22;5197;48.152;8.590;2023-05-07T00:29:29;12.10;18.20
10304;DHT22;5197;48.152;8.590;2023-05-07T00:31:56;12.10;18.10
10304;DHT22;5197;48.152;8.590;2023-05-07T00:34:23;12.00;18.00
10304;DHT22;5197;48.152;8.590;2023-05-07T00:36:50;12.00;18.10
10304;DHT22;5197;48.152;8.590;2023-05-07T00:39:16;11.90;18.10
10304;DHT22;5197;48.152;8.590;2023-05-07T00:41:43;11.90;18.50
10304;DHT22;5197;48.152;8.590;2023-05-07T00:44:10;11.90;18.70
10304;DHT22;5197;48.152;8.590;2023-05-07T00:46:37;11.90;18.80
10304;DHT22;5197;48.152;8.590;2023-05-07T00:49:05;11.90;18.90
10304;DHT22;5197;48.152;8.590;2023-05-07T00:51:33;11.90;18.90
10304;DHT22;5197;48.152;8.590;2023-05-07T00:54:02;11.80;18.90
10304;DHT22;5197;48.152;8.590;2023-05-07T00:56:30;11.80;18.90
10304;DHT22;5197;48.152;8.590;2023-05-07T00:58:58;11.80;19.20
10304;DHT22;5197;48.152;8.590;2023-05-07T01:01:25;11.70;19.40
10304;DHT22;5197;48.152;8.590;2023-05-07T01:03:53;11.80;19.70
10304;DHT22;5197;48.152;8.590;2023-05-07T01:06:23;11.70;19.80
10304;DHT22;5197;48.152;8.590;2023-05-07T01:08:51;11.70;19.80
10304;DHT22;5197;48.152;8.590;2023-05-07T01:11:19;11.70;20.00
10304;DHT22;5197;48.152;8.590;2023-05-07T01:13:49;11.70;20.10
10304;DHT22;5197;48.152;8.590;2023-05-07T01:16:17;11.70;20.40
10304;DHT22;5197;48.152;8.590;2023-05-07T01:18:44;11.70;20.70
10304;DHT22;5197;48.152;8.590;2023-05-07T01:21:13;11.70;20.80
10304;DHT22;5197;48.152;8.590;2023-05-07T01:23:42;11.70;20.90
10304;DHT22;5197;48.152;8.590;2023-05-07T01:26:10;11.70;20.80
10304;DHT22;5197;48.152;8.590;2023-05-07T01:28:37;11.60;20.90
10304;DHT22;5197;48.152;8.590;2023-05-07T01:31:04;11.60;21.40
10304;DHT22;5197;48.152;8.590;2023-05-07T01:33:34;11.60;21.90
10304;DHT22;5197;48.152;8.590;2023-05-07T01:36:03;11.60;21.80
10304;DHT22;5197;48.152;8.590;2023-05-07T01:38:33;11.60;21.80
10304;DHT22;5197;48.152;8.590;2023-05-07T01:41:00;11.60;21.80
10304;DHT22;5197;48.152;8.590;2023-05-07T01:43:29;11.60;21.90
10304;DHT22;5197;48.152;8.590;2023-05-07T01:45:57;11.60;21.80
10304;DHT22;5197;48.152;8.590;2023-05-07T01:48:25;11.60;21.80
10304;DHT22;5197;48.152;8.590;2023-05-07T01:50:53;11.60;21.90
10304;DHT22;5197;48.152;8.590;2023-05-07T01:53:20;11.60;21.80
10304;DHT22;5197;48.152;8.590;2023-05-07T01:55:48;11.50;21.80
10304;DHT22;5197;48.152;8.590;2023-05-07T01:58:15;11.50;21.80
10304;DHT22;5197;48.152;8.590;2023-05-07T02:00:41;11.40;21.70
10304;DHT22;5197;48.152;8.590;2023-05-07T02:03:09;11.40;21.80
10304;DHT22;5197;48.152;8.590;2023-05-07T02:05:36;11.40;21.80
10304;DHT22;5197;48.152;8.590;2023-05-07T02:08:03;11.30;21.80
10304;DHT22;5197;48.152;8.590;2023-05-07T02:10:30;11.30;21.70
10304;DHT22;5197;48.152;8.590;2023-05-07T02:12:57;11.30;21.70
10304;DHT22;5197;48.152;8.590;2023-05-07T02:15:24;11.30;21.70
10304;DHT22;5197;48.152;8.590;2023-05-07T02:18:05;11.30;21.60
10304;DHT22;5197;48.152;8.590;2023-05-07T02:20:33;11.30;21.70
10304;DHT22;5197;48.152;8.590;2023-05-07T02:23:00;11.30;21.70
10304;DHT22;5197;48.152;8.590;2023-05-07T02:25:27;11.30;21.70
10304;DHT22;5197;48.152;8.590;2023-05-07T02:27:54;11.30;21.70
10304;DHT22;5197;48.152;8.590;2023-05-07T02:30:21;11.20;21.60
10304;DHT22;5197;48.152;8.590;2023-05-07T02:32:48;11.20;21.60
10304;DHT22;5197;48.152;8.590;2023-05-07T02:35:15;11.10;21.60
10304;DHT22;5197;48.152;8.590;2023-05-07T02:37:42;11.10;21.60
10304;DHT22;5197;48.152;8.590;2023-05-07T02:40:10;11.10;21.50
10304;DHT22;5197;48.152;8.590;2023-05-07T02:42:38;11.00;21.40
10304;DHT22;5197;48.152;8.590;2023-05-07T02:45:05;11.00;21.40
10304;DHT22;5197;48.152;8.590;2023-05-07T02:47:32;11.00;21.40
10304;DHT22;5197;48.152;8.590;2023-05-07T02:50:00;11.00;21.40
10304;DHT22;5197;48.152;8.590;2023-05-07T02:52:26;10.90;21.40
10304;DHT22;5197;48.152;8.590;2023-05-07T02:54:53;10.90;21.50
10304;DHT22;5197;48.152;8.590;2023-05-07T02:57:20;10.80;21.40
10304;DHT22;5197;48.152;8.590;2023-05-07T02:59:47;10.80;21.40
10304;DHT22;5197;48.152;8.590;2023-05-07T03:02:14;10.80;21.40
10304;DHT22;5197;48.152;8.590;2023-05-07T03:04:41;10.80;21.40
10304;DHT22;5197;48.152;8.590;2023-05-07T03:07:08;10.70;21.40
10304;DHT22;5197;48.152;8.590;2023-05-07T03:09:35;10.80;21.40
10304;DHT22;5197;48.152;8.590;2023-05-07T03:12:02;10.80;21.50
10304;DHT22;5197;48.152;8.590;2023-05-07T03:14:29;10.80;21.30
10304;DHT22;5197;48.152;8.590;2023-05-07T03:16:56;10.80;21.40
10304;DHT22;5197;48.152;8.590;2023-05-07T03:19:23;10.80;21.50
10304;DHT22;5197;48.152;8.590;2023-05-07T03:21:50;10.70;21.30
10304;DHT22;5197;48.152;8.590;2023-05-07T03:24:17;10.70;21.30
10304;DHT22;5197;48.152;8.590;2023-05-07T03:26:44;10.70;21.30
10304;DHT22;5197;48.152;8.590;2023-05-07T03:29:11;10.70;21.50
10304;DHT22;5197;48.152;8.590;2023-05-07T03:31:38;10.70;22.30
10304;DHT22;5197;48.152;8.590;2023-05-07T03:34:05;10.70;21.30
10304;DHT22;5197;48.152;8.590;2023-05-07T03:36:32;10.60;21.20
10304;DHT22;5197;48.152;8.590;2023-05-07T03:38:59;10.60;21.20
10304;DHT22;5197;48.152;8.590;2023-05-07T03:41:26;10.50;21.20
10304;DHT22;5197;48.152;8.590;2023-05-07T03:43:53;10.50;21.20
10304;DHT22;5197;48.152;8.590;2023-05-07T03:46:20;10.40;21.00
10304;DHT22;5197;48.152;8.590;2023-05-07T03:48:48;10.40;21.00
10304;DHT22;5197;48.152;8.590;2023-05-07T03:51:15;10.30;21.00
10304;DHT22;5197;48.152;8.590;2023-05-07T03:53:42;10.20;21.00
10304;DHT22;5197;48.152;8.590;2023-05-07T03:56:09;10.20;20.90
10304;DHT22;5197;48.152;8.590;2023-05-07T03:58:36;10.10;20.90
10304;DHT22;5197;48.152;8.590;2023-05-07T04:01:03;10.10;20.90
10304;DHT22;5197;48.152;8.590;2023-05-07T04:03:30;10.00;20.70
10304;DHT22;5197;48.152;8.590;2023-05-07T04:05:57;10.00;21.20
10304;DHT22;5197;48.152;8.590;2023-05-07T04:08:24;10.00;22.10
10304;DHT22;5197;48.152;8.590;2023-05-07T04:10:58;10.00;22.50
10304;DHT22;5197;48.152;8.590;2023-05-07T04:13:27;10.10;22.40
10304;DHT22;5197;48.152;8.590;2023-05-07T04:15:55;10.10;22.30
10304;DHT22;5197;48.152;8.590;2023-05-07T04:18:22;10.10;22.20
10304;DHT22;5197;48.152;8.590;2023-05-07T04:20:49;10.00;22.30
10304;DHT22;5197;48.152;8.590;2023-05-07T04:23:16;10.00;22.40
10304;DHT22;5197;48.152;8.590;2023-05-07T04:25:43;10.20;22.50
10304;DHT22;5197;48.152;8.590;2023-05-07T04:28:11;10.00;22.50
10304;DHT22;5197;48.152;8.590;2023-05-07T04:30:38;10.00;22.70
10304;DHT22;5197;48.152;8.590;2023-05-07T04:33:05;10.00;23.10
10304;DHT22;5197;48.152;8.590;2023-05-07T04:35:34;10.00;23.60
10304;DHT22;5197;48.152;8.590;2023-05-07T04:38:01;10.10;23.90
10304;DHT22;5197;48.152;8.590;2023-05-07T04:40:28;10.10;24.20
10304;DHT22;5197;48.152;8.590;2023-05-07T04:42:55;10.20;23.50
10304;DHT22;5197;48.152;8.590;2023-05-07T04:45:26;10.20;24.20
10304;DHT22;5197;48.152;8.590;2023-05-07T04:47:53;10.20;24.30
10304;DHT22;5197;48.152;8.590;2023-05-07T04:50:20;10.20;24.80
10304;DHT22;5197;48.152;8.590;2023-05-07T04:52:50;10.20;25.10
10304;DHT22;5197;48.152;8.590;2023-05-07T04:55:17;10.20;25.40
10304;DHT22;5197;48.152;8.590;2023-05-07T04:57:44;10.10;25.50
10304;DHT22;5197;48.152;8.590;2023-05-07T05:00:12;10.20;25.60
10304;DHT22;5197;48.152;8.590;2023-05-07T05:02:41;10.20;26.00
10304;DHT22;5197;48.152;8.590;2023-05-07T05:05:09;10.20;26.50
10304;DHT22;5197;48.152;8.590;2023-05-07T05:07:35;10.30;26.60
10304;DHT22;5197;48.152;8.590;2023-05-07T05:10:04;10.30;26.90
10304;DHT22;5197;48.152;8.590;2023-05-07T05:12:31;10.40;27.10
10304;DHT22;5197;48.152;8.590;2023-05-07T05:14:58;10.40;27.20
10304;DHT22;5197;48.152;8.590;2023-05-07T05:17:25;10.50;27.30
10304;DHT22;5197;48.152;8.590;2023-05-07T05:19:52;10.50;28.40
10304;DHT22;5197;48.152;8.590;2023-05-07T05:22:19;10.60;27.80
10304;DHT22;5197;48.152;8.590;2023-05-07T05:24:47;10.60;28.10
10304;DHT22;5197;48.152;8.590;2023-05-07T05:27:14;10.70;28.40
10304;DHT22;5197;48.152;8.590;2023-05-07T05:29:41;10.70;28.70
10304;DHT22;5197;48.152;8.590;2023-05-07T05:32:08;10.80;28.90
10304;DHT22;5197;48.152;8.590;2023-05-07T05:34:35;10.70;29.10
10304;DHT22;5197;48.152;8.590;2023-05-07T05:37:02;11.10;29.70
10304;DHT22;5197;48.152;8.590;2023-05-07T05:39:29;11.20;29.80
10304;DHT22;5197;48.152;8.590;2023-05-07T05:41:56;11.30;30.40
10304;DHT22;5197;48.152;8.590;2023-05-07T05:44:23;11.50;31.20
10304;DHT22;5197;48.152;8.590;2023-05-07T05:46:50;11.70;31.10
10304;DHT22;5197;48.152;8.590;2023-05-07T05:49:18;11.90;30.50
10304;DHT22;5197;48.152;8.590;2023-05-07T05:51:45;12.10;29.70
10304;DHT22;5197;48.152;8.590;2023-05-07T05:54:12;12.30;29.20
10304;DHT22;5197;48.152;8.590;2023-05-07T05:56:39;12.40;29.10
10304;DHT22;5197;48.152;8.590;2023-05-07T05:59:06;12.60;29.50
10304;DHT22;5197;48.152;8.590;2023-05-07T06:01:34;12.80;29.20
10304;DHT22;5197;48.152;8.590;2023-05-07T06:04:01;13.00;28.90
10304;DHT22;5197;48.152;8.590;2023-05-07T06:06:28;13.20;28.60
10304;DHT22;5197;48.152;8.590;2023-05-07T06:08:55;13.40;28.00
10304;DHT22;5197;48.152;8.590;2023-05-07T06:11:22;13.60;26.70
10304;DHT22;5197;48.152;8.590;2023-05-07T06:13:49;13.70;25.50
10304;DHT22;5197;48.152;8.590;2023-05-07T06:16:16;13.80;24.90
10304;DHT22;5197;48.152;8.590;2023-05-07T06:18:44;13.90;24.00
10304;DHT22;5197;48.152;8.590;2023-05-07T06:21:13;14.00;23.50
10304;DHT22;5197;48.152;8.590;2023-05-07T06:23:40;14.20;23.70
10304;DHT22;5197;48.152;8.590;2023-05-07T06:26:08;14.30;23.70
10304;DHT22;5197;48.152;8.590;2023-05-07T06:28:35;14.50;23.80
10304;DHT22;5197;48.152;8.590;2023-05-07T06:31:18;14.70;23.90
10304;DHT22;5197;48.152;8.590;2023-05-07T06:33:49;14.90;24.20
10304;DHT22;5197;48.152;8.590;2023-05-07T06:36:16;15.20;24.00
10304;DHT22;5197;48.152;8.590;2023-05-07T06:38:43;15.50;20.90
10304;DHT22;5197;48.152;8.590;2023-05-07T06:41:11;15.60;19.20
10304;DHT22;5197;48.152;8.590;2023-05-07T06:43:38;15.70;19.20
10304;DHT22;5197;48.152;8.590;2023-05-07T06:46:06;15.80;18.10
10304;DHT22;5197;48.152;8.590;2023-05-07T06:48:33;15.90;17.20
10304;DHT22;5197;48.152;8.590;2023-05-07T06:51:00;15.80;16.40
10304;DHT22;5197;48.152;8.590;2023-05-07T06:53:27;15.90;15.90
10304;DHT22;5197;48.152;8.590;2023-05-07T06:55:56;15.90;15.50
10304;DHT22;5197;48.152;8.590;2023-05-07T06:58:23;15.90;15.20
10304;DHT22;5197;48.152;8.590;2023-05-07T07:00:50;16.00;15.60
10304;DHT22;5197;48.152;8.590;2023-05-07T07:03:17;16.10;16.00
10304;DHT22;5197;48.152;8.590;2023-05-07T07:05:44;16.40;15.50
10304;DHT22;5197;48.152;8.590;2023-05-07T07:08:11;16.70;14.90
10304;DHT22;5197;48.152;8.590;2023-05-07T07:10:38;17.10;14.30
10304;DHT22;5197;48.152;8.590;2023-05-07T07:13:06;17.50;13.60
10304;DHT22;5197;48.152;8.590;2023-05-07T07:15:33;17.80;11.90
10304;DHT22;5197;48.152;8.590;2023-05-07T07:18:00;18.00;9.80
10304;DHT22;5197;48.152;8.590;2023-05-07T07:20:27;18.10;8.30
10304;DHT22;5197;48.152;8.590;2023-05-07T07:22:54;18.10;7.60
10304;DHT22;5197;48.152;8.590;2023-05-07T07:25:22;18.10;6.20
10304;DHT22;5197;48.152;8.590;2023-05-07T07:27:50;18.00;5.50
10304;DHT22;5197;48.152;8.590;2023-05-07T07:30:17;18.00;5.70
10304;DHT22;5197;48.152;8.590;2023-05-07T07:32:44;18.10;4.90
10304;DHT22;5197;48.152;8.590;2023-05-07T07:35:11;18.10;3.00
10304;DHT22;5197;48.152;8.590;2023-05-07T07:37:39;18.00;3.10
10304;DHT22;5197;48.152;8.590;2023-05-07T07:40:06;17.90;2.90
10304;DHT22;5197;48.152;8.590;2023-05-07T07:42:33;17.90;3.00
10304;DHT22;5197;48.152;8.590;2023-05-07T07:45:01;18.00;4.00
10304;DHT22;5197;48.152;8.590;2023-05-07T07:47:28;18.30;3.10
10304;DHT22;5197;48.152;8.590;2023-05-07T07:49:55;18.50;1.70
10304;DHT22;5197;48.152;8.590;2023-05-07T07:52:22;18.70;1.00
10304;DHT22;5197;48.152;8.590;2023-05-07T07:54:50;19.00;1.00
10304;DHT22;5197;48.152;8.590;2023-05-07T07:57:17;19.30;1.00
10304;DHT22;5197;48.152;8.590;2023-05-07T07:59:44;19.50;1.00
10304;DHT22;5197;48.152;8.590;2023-05-07T08:02:12;19.60;1.00
10304;DHT22;5197;48.152;8.590;2023-05-07T08:04:39;19.80;1.00
10304;DHT22;5197;48.152;8.590;2023-05-07T08:07:06;19.90;1.00
10304;DHT22;5197;48.152;8.590;2023-05-07T08:09:33;20.00;1.00
10304;DHT22;5197;48.152;8.590;2023-05-07T08:12:01;20.30;1.00
10304;DHT22;5197;48.152;8.590;2023-05-07T08:14:28;20.40;1.00
10304;DHT22;5197;48.152;8.590;2023-05-07T08:16:56;20.50;1.00
10304;DHT22;5197;48.152;8.590;2023-05-07T08:19:23;20.50;1.00
10304;DHT22;5197;48.152;8.590;2023-05-07T08:21:50;20.50;1.00
10304;DHT22;5197;48.152;8.590;2023-05-07T08:24:18;20.40;1.00
10304;DHT22;5197;48.152;8.590;2023-05-07T08:26:45;20.40;1.00
10304;DHT22;5197;48.152;8.590;2023-05-07T08:29:13;20.40;1.00
10304;DHT22;5197;48.152;8.590;2023-05-07T08:31:41;20.40;1.00
10304;DHT22;5197;48.152;8.590;2023-05-07T08:34:08;20.50;1.00
10304;DHT22;5197;48.152;8.590;2023-05-07T08:36:36;20.60;1.00
10304;DHT22;5197;48.152;8.590;2023-05-07T08:39:03;20.60;1.00
10304;DHT22;5197;48.152;8.590;2023-05-07T08:41:30;20.60;1.00
10304;DHT22;5197;48.152;8.590;2023-05-07T08:43:58;20.50;1.00
10304;DHT22;5197;48.152;8.590;2023-05-07T08:46:30;20.50;1.00
10304;DHT22;5197;48.152;8.590;2023-05-07T08:48:58;20.40;1.00
10304;DHT22;5197;48.152;8.590;2023-05-07T08:51:25;20.50;1.00
10304;DHT22;5197;48.152;8.590;2023-05-07T08:53:54;20.50;1.00
10304;DHT22;5197;48.152;8.590;2023-05-07T08:56:22;20.60;1.00
10304;DHT22;5197;48.152;8.590;2023-05-07T08:58:49;20.70;1.00
10304;DHT22;5197;48.152;8.590;2023-05-07T09:01:17;20.70;1.00
10304;DHT22;5197;48.152;8.590;2023-05-07T09:03:45;20.90;1.00
10304;DHT22;5197;48.152;8.590;2023-05-07T09:06:13;21.00;1.00
10304;DHT22;5197;48.152;8.590;2023-05-07T09:08:40;21.10;1.00
10304;DHT22;5197;48.152;8.590;2023-05-07T09:11:07;21.20;1.00
10304;DHT22;5197;48.152;8.590;2023-05-07T09:13:34;21.30;1.00
10304;DHT22;5197;48.152;8.590;2023-05-07T09:16:12;21.30;1.00
10304;DHT22;5197;48.152;8.590;2023-05-07T09:18:43;21.50;1.00
10304;DHT22;5197;48.152;8.590;2023-05-07T09:21:15;21.50;1.00
10304;DHT22;5197;48.152;8.590;2023-05-07T09:23:42;21.50;1.00
10304;DHT22;5197;48.152;8.590;2023-05-07T09:26:10;21.60;1.00
10304;DHT22;5197;48.152;8.590;2023-05-07T09:28:42;21.60;1.00
10304;DHT22;5197;48.152;8.590;2023-05-07T09:31:10;21.60;1.00
10304;DHT22;5197;48.152;8.590;2023-05-07T09:33:38;21.70;1.00
10304;DHT22;5197;48.152;8.590;2023-05-07T09:36:07;21.80;1.00
10304;DHT22;5197;48.152;8.590;2023-05-07T09:38:36;21.90;1.00
10304;DHT22;5197;48.152;8.590;2023-05-07T09:41:04;22.00;1.00
10304;DHT22;5197;48.152;8.590;2023-05-07T09:43:37;22.00;1.00
10304;DHT22;5197;48.152;8.590;2023-05-07T09:46:16;22.00;1.00
10304;DHT22;5197;48.152;8.590;2023-05-07T09:48:44;22.00;1.00
10304;DHT22;5197;48.152;8.590;2023-05-07T09:51:22;22.00;1.00
10304;DHT22;5197;48.152;8.590;2023-05-07T09:53:53;22.00;1.00
10304;DHT22;5197;48.152;8.590;2023-05-07T09:56:21;21.90;1.00
10304;DHT22;5197;48.152;8.590;2023-05-07T09:58:52;21.90;1.00
10304;DHT22;5197;48.152;8.590;2023-05-07T10:01:21;21.80;1.00
10304;DHT22;5197;48.152;8.590;2023-05-07T10:03:51;21.70;1.00
10304;DHT22;5197;48.152;8.590;2023-05-07T10:06:20;21.60;1.00
10304;DHT22;5197;48.152;8.590;2023-05-07T10:08:48;21.50;1.00
10304;DHT22;5197;48.152;8.590;2023-05-07T10:11:16;21.30;1.00
10304;DHT22;5197;48.152;8.590;2023-05-07T10:13:43;21.30;1.00
10304;DHT22;5197;48.152;8.590;2023-05-07T10:16:11;21.20;1.00
10304;DHT22;5197;48.152;8.590;2023-05-07T10:18:40;21.20;1.00
10304;DHT22;5197;48.152;8.590;2023-05-07T10:21:13;21.10;1.00
10304;DHT22;5197;48.152;8.590;2023-05-07T10:23:45;21.00;1.00
10304;DHT22;5197;48.152;8.590;2023-05-07T10:26:13;21.00;1.00
10304;DHT22;5197;48.152;8.590;2023-05-07T10:28:45;20.90;1.00
10304;DHT22;5197;48.152;8.590;2023-05-07T10:34:11;21.10;1.00
10304;DHT22;5197;48.152;8.590;2023-05-07T10:36:40;21.10;1.00
10304;DHT22;5197;48.152;8.590;2023-05-07T10:39:09;21.20;1.00
10304;DHT22;5197;48.152;8.590;2023-05-07T10:41:36;21.30;1.00
10304;DHT22;5197;48.152;8.590;2023-05-07T10:44:04;21.40;1.00
10304;DHT22;5197;48.152;8.590;2023-05-07T10:46:31;21.40;1.00
10304;DHT22;5197;48.152;8.590;2023-05-07T10:51:34;21.20;1.00
10304;DHT22;5197;48.152;8.590;2023-05-07T10:56:39;21.20;1.00
10304;DHT22;5197;48.152;8.590;2023-05-07T11:02:04;21.20;1.00
10304;DHT22;5197;48.152;8.590;2023-05-07T11:04:34;21.00;1.00
10304;DHT22;5197;48.152;8.590;2023-05-07T11:09:54;20.40;1.00
10304;DHT22;5197;48.152;8.590;2023-05-07T11:15:12;20.00;1.00
10304;DHT22;5197;48.152;8.590;2023-05-07T11:20:21;19.80;1.00
10304;DHT22;5197;48.152;8.590;2023-05-07T11:26:04;19.40;1.00
10304;DHT22;5197;48.152;8.590;2023-05-07T11:28:36;19.30;1.00
10304;DHT22;5197;48.152;8.590;2023-05-07T11:31:04;19.30;1.00
10304;DHT22;5197;48.152;8.590;2023-05-07T11:33:32;19.30;1.00
10304;DHT22;5197;48.152;8.590;2023-05-07T11:36:00;19.30;1.00
10304;DHT22;5197;48.152;8.590;2023-05-07T11:38:28;19.40;1.00
10304;DHT22;5197;48.152;8.590;2023-05-07T11:40:58;19.60;1.00
10304;DHT22;5197;48.152;8.590;2023-05-07T11:43:27;19.50;1.00
10304;DHT22;5197;48.152;8.590;2023-05-07T11:45:54;19.40;1.00
10304;DHT22;5197;48.152;8.590;2023-05-07T11:48:22;19.30;1.00
10304;DHT22;5197;48.152;8.590;2023-05-07T11:53:27;19.00;1.00
10304;DHT22;5197;48.152;8.590;2023-05-07T11:55:57;18.60;2.00
10304;DHT22;5197;48.152;8.590;2023-05-07T11:58:25;18.30;3.20
10304;DHT22;5197;48.152;8.590;2023-05-07T12:00:53;17.90;2.80
10304;DHT22;5197;48.152;8.590;2023-05-07T12:03:21;17.50;3.90
10304;DHT22;5197;48.152;8.590;2023-05-07T12:05:48;17.10;4.30
10304;DHT22;5197;48.152;8.590;2023-05-07T12:08:21;16.70;5.90
10304;DHT22;5197;48.152;8.590;2023-05-07T12:10:49;16.50;6.40
10304;DHT22;5197;48.152;8.590;2023-05-07T12:13:24;16.30;6.70
10304;DHT22;5197;48.152;8.590;2023-05-07T12:15:54;16.10;7.80
10304;DHT22;5197;48.152;8.590;2023-05-07T12:18:22;15.90;8.20
10304;DHT22;5197;48.152;8.590;2023-05-07T12:20:50;15.50;10.00
10304;DHT22;5197;48.152;8.590;2023-05-07T12:23:17;14.90;14.60
10304;DHT22;5197;48.152;8.590;2023-05-07T12:25:45;15.00;12.70
10304;DHT22;5197;48.152;8.590;2023-05-07T12:28:16;14.80;12.60
10304;DHT22;5197;48.152;8.590;2023-05-07T12:30:45;14.70;11.90
10304;DHT22;5197;48.152;8.590;2023-05-07T12:33:20;14.00;10.60
10304;DHT22;5197;48.152;8.590;2023-05-07T12:35:50;15.00;10.20
10304;DHT22;5197;48.152;8.590;2023-05-07T12:38:17;15.20;9.40
10304;DHT22;5197;48.152;8.590;2023-05-07T12:40:49;15.40;8.50
10304;DHT22;5197;48.152;8.590;2023-05-07T12:43:24;15.40;7.70
10304;DHT22;5197;48.152;8.590;2023-05-07T12:45:55;15.50;7.40
10304;DHT22;5197;48.152;8.590;2023-05-07T12:48:23;15.50;6.70
10304;DHT22;5197;48.152;8.590;2023-05-07T12:50:51;15.70;6.20
10304;DHT22;5197;48.152;8.590;2023-05-07T12:53:21;15.70;6.30
10304;DHT22;5197;48.152;8.590;2023-05-07T12:55:51;15.80;6.20
10304;DHT22;5197;48.152;8.590;2023-05-07T12:58:28;15.80;6.20
10304;DHT22;5197;48.152;8.590;2023-05-07T13:00:58;15.90;7.10
10304;DHT22;5197;48.152;8.590;2023-05-07T13:03:36;16.00;8.90
10304;DHT22;5197;48.152;8.590;2023-05-07T13:06:08;16.00;9.80
10304;DHT22;5197;48.152;8.590;2023-05-07T13:08:39;16.10;10.80
10304;DHT22;5197;48.152;8.590;2023-05-07T13:11:15;16.00;11.60
10304;DHT22;5197;48.152;8.590;2023-05-07T13:13:42;16.00;12.40
10304;DHT22;5197;48.152;8.590;2023-05-07T13:16:10;16.10;12.80
10304;DHT22;5197;48.152;8.590;2023-05-07T13:18:39;16.10;12.60
10304;DHT22;5197;48.152;8.590;2023-05-07T13:21:07;16.20;12.80
10304;DHT22;5197;48.152;8.590;2023-05-07T13:23:34;16.30;12.50
10304;DHT22;5197;48.152;8.590;2023-05-07T13:26:01;16.30;12.60
10304;DHT22;5197;48.152;8.590;2023-05-07T13:28:40;16.40;13.10
10304;DHT22;5197;48.152;8.590;2023-05-07T13:31:07;16.50;13.10
10304;DHT22;5197;48.152;8.590;2023-05-07T13:33:34;16.50;13.70
10304;DHT22;5197;48.152;8.590;2023-05-07T13:36:02;16.50;13.70
10304;DHT22;5197;48.152;8.590;2023-05-07T13:38:31;16.60;14.10
10304;DHT22;5197;48.152;8.590;2023-05-07T13:40:58;16.70;15.10
10304;DHT22;5197;48.152;8.590;2023-05-07T13:43:25;16.80;14.60
10304;DHT22;5197;48.152;8.590;2023-05-07T13:45:53;16.90;13.00
10304;DHT22;5197;48.152;8.590;2023-05-07T13:48:19;17.00;13.80
10304;DHT22;5197;48.152;8.590;2023-05-07T13:50:47;17.10;12.80
10304;DHT22;5197;48.152;8.590;2023-05-07T13:53:13;17.10;11.10
10304;DHT22;5197;48.152;8.590;2023-05-07T13:55:44;17.20;11.90
10304;DHT22;5197;48.152;8.590;2023-05-07T13:58:11;17.20;10.40
10304;DHT22;5197;48.152;8.590;2023-05-07T14:00:38;17.30;9.50
10304;DHT22;5197;48.152;8.590;2023-05-07T14:03:05;17.20;8.90
10304;DHT22;5197;48.152;8.590;2023-05-07T14:05:32;17.00;7.80
10304;DHT22;5197;48.152;8.590;2023-05-07T14:08:00;16.90;8.70
10304;DHT22;5197;48.152;8.590;2023-05-07T14:10:27;16.90;9.50
10304;DHT22;5197;48.152;8.590;2023-05-07T14:12:54;16.60;8.70
10304;DHT22;5197;48.152;8.590;2023-05-07T14:15:21;16.50;9.10
10304;DHT22;5197;48.152;8.590;2023-05-07T14:17:49;16.40;9.80
10304;DHT22;5197;48.152;8.590;2023-05-07T14:20:16;16.40;9.70
10304;DHT22;5197;48.152;8.590;2023-05-07T14:22:43;16.40;8.80
10304;DHT22;5197;48.152;8.590;2023-05-07T14:25:10;16.50;8.60
10304;DHT22;5197;48.152;8.590;2023-05-07T14:27:37;16.60;8.30
10304;DHT22;5197;48.152;8.590;2023-05-07T14:30:05;16.70;8.00
10304;DHT22;5197;48.152;8.590;2023-05-07T14:32:32;16.70;8.80
10304;DHT22;5197;48.152;8.590;2023-05-07T14:35:00;16.60;9.10
10304;DHT22;5197;48.152;8.590;2023-05-07T14:37:27;16.20;8.40
10304;DHT22;5197;48.152;8.590;2023-05-07T14:39:55;16.20;8.90
10304;DHT22;5197;48.152;8.590;2023-05-07T14:42:22;16.10;8.50
10304;DHT22;5197;48.152;8.590;2023-05-07T14:44:48;16.10;8.50
10304;DHT22;5197;48.152;8.590;2023-05-07T14:47:16;16.10;8.40
10304;DHT22;5197;48.152;8.590;2023-05-07T14:49:45;16.10;9.20
10304;DHT22;5197;48.152;8.590;2023-05-07T14:52:12;16.10;8.00
10304;DHT22;5197;48.152;8.590;2023-05-07T14:54:40;16.00;6.90
10304;DHT22;5197;48.152;8.590;2023-05-07T14:57:08;16.00;6.90
10304;DHT22;5197;48.152;8.590;2023-05-07T14:59:38;15.90;5.70
10304;DHT22;5197;48.152;8.590;2023-05-07T15:02:06;15.90;5.80
10304;DHT22;5197;48.152;8.590;2023-05-07T15:04:35;15.80;5.20
10304;DHT22;5197;48.152;8.590;2023-05-07T15:07:02;15.90;5.70
10304;DHT22;5197;48.152;8.590;2023-05-07T15:09:29;15.90;5.00
10304;DHT22;5197;48.152;8.590;2023-05-07T15:11:56;15.90;5.30
10304;DHT22;5197;48.152;8.590;2023-05-07T15:14:23;15.90;5.50
10304;DHT22;5197;48.152;8.590;2023-05-07T15:16:50;16.00;5.20
10304;DHT22;5197;48.152;8.590;2023-05-07T15:19:17;16.10;5.60
10304;DHT22;5197;48.152;8.590;2023-05-07T15:21:44;16.30;5.00
10304;DHT22;5197;48.152;8.590;2023-05-07T15:24:11;16.40;5.10
10304;DHT22;5197;48.152;8.590;2023-05-07T15:26:38;16.40;4.60
10304;DHT22;5197;48.152;8.590;2023-05-07T15:29:05;16.40;5.80
10304;DHT22;5197;48.152;8.590;2023-05-07T15:31:37;16.30;5.80
10304;DHT22;5197;48.152;8.590;2023-05-07T15:34:06;16.40;6.00
10304;DHT22;5197;48.152;8.590;2023-05-07T15:36:34;16.40;5.80
10304;DHT22;5197;48.152;8.590;2023-05-07T15:39:01;16.50;6.30
10304;DHT22;5197;48.152;8.590;2023-05-07T15:41:30;16.60;5.60
10304;DHT22;5197;48.152;8.590;2023-05-07T15:43:57;16.70;5.70
10304;DHT22;5197;48.152;8.590;2023-05-07T15:46:25;16.60;5.90
10304;DHT22;5197;48.152;8.590;2023-05-07T15:48:53;16.60;7.50
10304;DHT22;5197;48.152;8.590;2023-05-07T15:51:20;16.50;7.40
10304;DHT22;5197;48.152;8.590;2023-05-07T15:53:49;16.50;7.30
10304;DHT22;5197;48.152;8.590;2023-05-07T15:56:17;16.50;8.00
10304;DHT22;5197;48.152;8.590;2023-05-07T15:58:44;16.60;8.30
10304;DHT22;5197;48.152;8.590;2023-05-07T16:01:12;16.70;8.10
10304;DHT22;5197;48.152;8.590;2023-05-07T16:03:39;16.70;8.20
10304;DHT22;5197;48.152;8.590;2023-05-07T16:06:08;16.70;9.00
10304;DHT22;5197;48.152;8.590;2023-05-07T16:08:38;16.70;9.20
10304;DHT22;5197;48.152;8.590;2023-05-07T16:11:06;16.70;9.60
10304;DHT22;5197;48.152;8.590;2023-05-07T16:13:36;16.70;8.80
10304;DHT22;5197;48.152;8.590;2023-05-07T16:16:03;16.90;8.50
10304;DHT22;5197;48.152;8.590;2023-05-07T16:18:31;16.90;7.20
10304;DHT22;5197;48.152;8.590;2023-05-07T16:20:59;16.90;7.70